AirNav   Pilot Hours Calculator
 
 1708 users online  

0CN2 Sutter Butte Dusters Airport
Live Oak, California, USA

GOING TO LIVE OAK?


FAA INFORMATION EFFECTIVE 04 NOVEMBER 2021

Location

FAA Identifier: 0CN2
Lat/Long: 39-13-43.0400N 121-41-17.7550W
39-13.717333N 121-41.295917W
39.2286222,-121.6882653
(estimated)
Elevation: 67 ft. / 20 m (estimated)
From city: 3 miles SW of LIVE OAK, CA
Time zone: UTC -7 (UTC -8 during Standard Time)
Zip code: 95953

Airport Operations

Airport use: Private use. Permission required prior to landing
Activation date: 03/2017
Control tower: no
ARTCC: OAKLAND CENTER
FSS: RANCHO MURIETA FLIGHT SERVICE STATION
Attendance: UNATNDD
Segmented circle: no

Airport Communications

WX ASOS at MYV (10 nm SE): 118.475 (530-742-0695)
WX ASOS at OVE (16 nm N): 121.425 (530-533-5792)

Nearby radio navigation aids

VOR radial/distance  VOR name  Freq  Var
MYVr310/9.5MARYSVILLE VOR/DME110.8016E
ILAr041/18.4WILLIAMS VORTAC114.4018E
MCCr322/36.2MC CLELLAN VOR/DME109.2017E

Airport Services

Runway Information

Runway 16/34

Dimensions: 2493 x 31 ft. / 760 x 9 m
Surface: asphalt
RUNWAY 16  RUNWAY 34
Latitude: 39-13.922667N39-13.512000N
Longitude: 121-41.295000W121-41.296833W
Elevation: 67.0 ft.67.0 ft.
Traffic pattern: leftleft
Touchdown point: yes, no lightsyes, no lights

Airport Ownership and Management from official FAA records

Ownership: Privately-owned
Owner: SUTTER BUTTE DUSTERS, INC
4080 CLARK RD
LIVE OAK, CA 95953
Phone 530-695-2294
Manager: RICHARD ALEXANDER
4080 CLARK RD
LIVE OAK, CA 95953
Phone 530-695-2294

Additional Remarks

FOR CD CTC OAKLAND ARTCC AT 510-745-3380.

Instrument Procedures

There are no published instrument procedures at 0CN2.

Some nearby airports with instrument procedures:

KMYV - Yuba County Airport (10 nm SE)
KBAB - Beale Air Force Base (13 nm SE)
O08 - Colusa County Airport (14 nm W)
KOVE - Oroville Municipal Airport (16 nm N)
KLHM - Lincoln Regional Airport/Karl Harder Field (25 nm SE)
 
Loc | Ops | Rwys | IFR | FBO | Links
Com | Nav | Svcs | Stats | Notes
Aerial photo
No photo
 
Airport distance calculator
Flying to Sutter Butte Dusters Airport? Find the distance to fly.

From to 0CN2

Sunrise and sunset
Times for 30-Nov-2021
 Local
(UTC-8)
 Zulu
(UTC)
Morning civil twilight06:3814:38
Sunrise07:0715:07
Sunset16:4400:44
Evening civil twilight17:1301:13

Current date and time
Zulu (UTC)  30-Nov-2021 19:11:09
Local (UTC-8)  30-Nov-2021 11:11:09
 
METAR
KMYV 
10nm SE 
301853Z AUTO 00000KT 10SM CLR 14/09 A3018 RMK AO2 SLP223 T01440089 $
KBAB 
13nm SE 
301858Z AUTO 00000KT 10SM CLR 15/08 A3017 RMK AO2 SLP220 T01530076 $
KOVE 
17nm N 
301853Z AUTO 30005KT 10SM CLR 16/11 A3019 RMK AO2 SLP226 T01560111
TAF
KBAB 
13nm SE 
301100Z 3011/0117 VRB06KT 9999 FEW250 QNH3012INS BECMG 3016/3017 32006KT 9999 FEW250 QNH3009INS BECMG 0101/0102 VRB06KT 9999 SKC QNH3009INS TX18/3022Z TN06/3013Z
NOTAMs
Click for the latest NOTAMs
NOTAMs are issued by the DoD/FAA and will open in a separate window not controlled by AirNav.

 

 
 

Would you like to see your business listed on this page?

 If your business provides an interesting product or service to pilots, flight crews, aircraft, or users of the Sutter Butte Dusters Airport, you should consider listing it here.  To start the listing process, click on the button below
 
Add a business
 

Other Pages about Sutter Butte Dusters Airport

Update a link
 
Copyright © AirNav, LLC. All rights reserved. Privacy Policy  Contact